createdAt,value
2022-10-17T00:00:37.166Z,7.35
2022-10-17T00:03:07.763Z,10.13
2022-10-17T00:05:44.323Z,11.18
2022-10-17T00:08:14.764Z,8.30
2022-10-17T00:10:44.628Z,8.35
2022-10-17T00:13:14.448Z,9.55
2022-10-17T00:15:46.045Z,10.73
2022-10-17T00:18:15.865Z,9.60
2022-10-17T00:20:45.714Z,12.32
2022-10-17T00:23:15.597Z,11.95
2022-10-17T00:25:45.586Z,9.63
2022-10-17T00:28:16.149Z,17.25
2022-10-17T00:30:46.142Z,11.48
2022-10-17T00:33:16.022Z,12.35
2022-10-17T00:35:45.892Z,10.57
2022-10-17T00:38:16.046Z,13.18
2022-10-17T00:40:46.170Z,13.77
2022-10-17T00:43:19.431Z,16.73
2022-10-17T00:45:50.051Z,13.85
2022-10-17T00:48:22.643Z,14.45
2022-10-17T00:50:54.168Z,11.55
2022-10-17T00:53:24.265Z,9.77
2022-10-17T00:55:54.947Z,11.57
2022-10-17T00:58:24.939Z,12.20
2022-10-17T01:00:55.257Z,12.18
2022-10-17T01:03:25.484Z,15.43
2022-10-17T01:05:55.394Z,10.57
2022-10-17T01:08:25.400Z,13.07
2022-10-17T01:11:26.231Z,11.85
2022-10-17T01:14:27.737Z,19.42
2022-10-17T01:17:17.709Z,27.08
2022-10-17T01:20:01.388Z,22.10
2022-10-17T01:22:43.664Z,34.80
2022-10-17T01:25:35.159Z,20.98
2022-10-17T01:28:23.755Z,17.33
2022-10-17T01:31:04.876Z,17.92
2022-10-17T01:34:07.682Z,32.50
2022-10-17T01:36:41.269Z,19.27
2022-10-17T01:39:16.349Z,20.55
2022-10-17T01:41:52.468Z,20.88
2022-10-17T01:44:49.941Z,16.65
2022-10-17T01:47:23.620Z,18.92
2022-10-17T01:49:54.403Z,21.13
2022-10-17T01:52:29.745Z,15.23
2022-10-17T01:55:15.701Z,20.38
2022-10-17T01:57:53.359Z,17.25
2022-10-17T02:00:26.033Z,17.70
2022-10-17T02:03:04.454Z,20.87
2022-10-17T02:05:37.324Z,15.50
2022-10-17T02:08:07.646Z,13.35
2022-10-17T02:11:12.828Z,12.43
2022-10-17T02:17:05.715Z,14.73
2022-10-17T02:19:55.774Z,17.70
2022-10-17T02:22:45.264Z,14.77
2022-10-17T02:25:47.502Z,12.15
2022-10-17T02:28:32.077Z,12.93
2022-10-17T02:31:03.994Z,16.15
2022-10-17T02:34:00.674Z,14.52
2022-10-17T02:36:45.127Z,11.02
2022-10-17T02:39:15.180Z,10.25
2022-10-17T02:41:45.121Z,12.15
2022-10-17T02:44:15.078Z,10.18
2022-10-17T02:46:49.541Z,9.38
2022-10-17T02:49:28.617Z,12.68
2022-10-17T02:52:04.332Z,8.88
2022-10-17T02:54:43.244Z,9.05
2022-10-17T02:57:21.015Z,11.20
2022-10-17T02:59:50.905Z,13.07
2022-10-17T03:02:20.811Z,8.63
2022-10-17T03:04:50.753Z,11.25
2022-10-17T03:07:21.664Z,10.27
2022-10-17T03:09:51.882Z,9.35
2022-10-17T03:12:21.752Z,8.05
2022-10-17T03:15:05.988Z,12.63
2022-10-17T03:17:37.290Z,11.23
2022-10-17T03:20:07.870Z,10.35
2022-10-17T03:22:37.725Z,11.07
2022-10-17T03:25:08.962Z,13.88
2022-10-17T03:27:39.465Z,14.00
2022-10-17T03:30:10.130Z,14.88
2022-10-17T03:32:40.297Z,16.67
2022-10-17T03:35:14.089Z,12.57
2022-10-17T03:37:52.953Z,17.23
2022-10-17T03:40:25.242Z,10.40
2022-10-17T03:42:55.757Z,14.55
2022-10-17T03:45:26.393Z,16.52
2022-10-17T03:47:56.335Z,17.13
2022-10-17T03:50:26.982Z,17.38
2022-10-17T03:52:59.167Z,14.25
2022-10-17T03:55:33.923Z,11.27
2022-10-17T03:58:04.609Z,14.02
2022-10-17T04:00:37.649Z,12.57
2022-10-17T04:05:39.717Z,21.23
2022-10-17T04:08:09.792Z,15.63
2022-10-17T04:11:08.443Z,13.68
2022-10-17T04:13:38.768Z,11.85
2022-10-17T04:16:11.945Z,11.50
2022-10-17T04:18:49.390Z,11.65
2022-10-17T04:21:20.310Z,10.18
2022-10-17T04:23:50.283Z,10.27
2022-10-17T04:26:32.582Z,10.35
2022-10-17T04:29:02.578Z,14.05
2022-10-17T04:31:32.725Z,9.77
2022-10-17T04:34:17.490Z,8.32
2022-10-17T04:36:48.325Z,11.70
2022-10-17T04:39:18.370Z,9.15
2022-10-17T04:41:48.883Z,10.25
2022-10-17T04:44:19.222Z,10.48
2022-10-17T04:46:53.963Z,9.43
2022-10-17T04:49:25.428Z,7.43
2022-10-17T04:52:01.272Z,10.88
2022-10-17T04:54:40.534Z,16.77
2022-10-17T04:57:12.664Z,16.67
2022-10-17T04:59:46.233Z,16.38
2022-10-17T05:02:26.134Z,21.10
2022-10-17T05:04:56.172Z,20.38
2022-10-17T05:07:26.695Z,17.50
2022-10-17T05:10:03.318Z,19.17
2022-10-17T05:12:34.528Z,17.20
2022-10-17T05:15:04.518Z,24.83
2022-10-17T05:17:34.602Z,22.05
2022-10-17T05:20:04.599Z,20.67
2022-10-17T05:22:39.620Z,19.75
2022-10-17T05:25:13.090Z,20.98
2022-10-17T05:27:43.060Z,21.50
2022-10-17T05:30:13.171Z,20.90
2022-10-17T05:32:43.840Z,23.40
2022-10-17T05:35:13.742Z,22.30
2022-10-17T05:37:44.361Z,20.52
2022-10-17T05:40:14.628Z,19.02
2022-10-17T05:42:49.975Z,18.75
2022-10-17T05:45:21.676Z,15.68
2022-10-17T05:47:52.082Z,20.92
2022-10-17T05:50:23.192Z,19.13
2022-10-17T05:53:09.952Z,17.10
2022-10-17T05:55:45.678Z,13.48
2022-10-17T05:58:22.251Z,21.73
2022-10-17T06:01:10.675Z,20.13
2022-10-17T06:03:42.743Z,17.50
2022-10-17T06:06:14.120Z,28.00
2022-10-17T06:08:46.619Z,35.20
2022-10-17T06:11:20.667Z,32.10
2022-10-17T06:13:53.351Z,24.63
2022-10-17T06:16:27.040Z,38.20
2022-10-17T06:18:56.992Z,28.70
2022-10-17T06:21:28.404Z,21.85
2022-10-17T06:24:10.289Z,30.70
2022-10-17T06:26:43.516Z,28.20
2022-10-17T06:29:27.043Z,26.52
2022-10-17T06:31:57.591Z,31.38
2022-10-17T06:34:29.882Z,25.05
2022-10-17T06:36:59.886Z,21.42
2022-10-17T06:39:34.920Z,25.25
2022-10-17T06:42:11.403Z,12.98
2022-10-17T06:44:59.251Z,18.23
2022-10-17T06:47:47.979Z,16.15
2022-10-17T06:50:49.861Z,21.17
2022-10-17T06:53:23.636Z,16.48
2022-10-17T06:56:12.148Z,15.95
2022-10-17T06:59:01.591Z,18.10
2022-10-17T07:01:33.743Z,18.10
2022-10-17T07:04:07.054Z,15.10
2022-10-17T07:06:37.190Z,13.77
2022-10-17T07:09:12.939Z,11.75
2022-10-17T07:11:43.402Z,18.83
2022-10-17T07:14:13.266Z,20.73
2022-10-17T07:16:43.824Z,19.20
2022-10-17T07:19:21.082Z,14.65
2022-10-17T07:21:52.558Z,12.43
2022-10-17T07:24:22.944Z,16.90
2022-10-17T07:26:59.788Z,17.88
2022-10-17T07:29:31.683Z,10.63
2022-10-17T07:32:14.597Z,12.32
2022-10-17T07:34:44.978Z,12.93
2022-10-17T07:37:15.662Z,6.65
2022-10-17T07:39:51.841Z,10.93
2022-10-17T07:42:22.029Z,7.65
2022-10-17T07:44:55.695Z,9.55
2022-10-17T07:47:32.462Z,4.03
2022-10-17T07:50:04.592Z,4.75
2022-10-17T07:52:35.056Z,2.70
2022-10-17T07:55:05.238Z,4.60
2022-10-17T07:57:35.791Z,5.32
2022-10-17T08:00:07.590Z,4.57
2022-10-17T08:02:42.064Z,4.68
2022-10-17T08:05:12.237Z,2.58
2022-10-17T08:07:43.162Z,3.72
2022-10-17T08:10:16.761Z,4.07
2022-10-17T08:12:46.698Z,2.55
2022-10-17T08:15:16.536Z,1.67
2022-10-17T08:17:46.586Z,2.50
2022-10-17T08:20:16.819Z,2.15
2022-10-17T08:23:08.070Z,1.98
2022-10-17T08:25:41.681Z,3.00
2022-10-17T08:28:12.477Z,3.30
2022-10-17T08:30:43.412Z,1.83
2022-10-17T08:33:15.756Z,2.60
2022-10-17T08:35:45.614Z,3.03
2022-10-17T08:38:17.808Z,2.15
2022-10-17T08:40:50.687Z,3.20
2022-10-17T08:43:55.963Z,1.55
2022-10-17T08:46:29.214Z,0.82
2022-10-17T08:48:59.094Z,1.05
2022-10-17T08:51:35.556Z,2.10
2022-10-17T08:54:26.229Z,1.75
2022-10-17T08:56:57.161Z,0.90
2022-10-17T08:59:30.985Z,1.60
2022-10-17T09:02:30.115Z,1.85
2022-10-17T09:05:37.082Z,1.30
2022-10-17T09:08:36.882Z,3.03
2022-10-17T09:11:21.199Z,1.00
2022-10-17T09:14:03.227Z,1.98
2022-10-17T09:16:49.703Z,1.50
2022-10-17T09:19:33.909Z,1.67
2022-10-17T09:22:22.594Z,1.95
2022-10-17T09:25:04.582Z,1.80
2022-10-17T09:27:42.161Z,4.30
2022-10-17T09:30:45.465Z,4.63
2022-10-17T09:33:28.609Z,1.80
2022-10-17T09:36:08.748Z,1.65
2022-10-17T09:38:43.798Z,3.65
2022-10-17T09:42:05.837Z,19.40
2022-10-17T09:44:37.533Z,35.22
2022-10-17T09:47:31.267Z,26.67
2022-10-17T09:50:04.092Z,27.75
2022-10-17T09:52:36.729Z,24.67
2022-10-17T09:55:25.843Z,32.30
2022-10-17T09:57:57.711Z,43.03
2022-10-17T10:00:48.674Z,40.70
2022-10-17T10:03:22.439Z,33.25
2022-10-17T10:06:06.166Z,26.05
2022-10-17T10:08:56.959Z,29.63
2022-10-17T10:11:45.330Z,30.00
2022-10-17T10:14:34.593Z,18.67
2022-10-17T10:17:06.014Z,24.23
2022-10-17T10:19:40.088Z,33.47
2022-10-17T10:22:20.410Z,26.40
2022-10-17T10:25:10.080Z,27.27
2022-10-17T10:27:43.857Z,26.80
2022-10-17T10:30:21.254Z,26.20
2022-10-17T10:32:51.143Z,18.05
2022-10-17T10:35:23.984Z,32.25
2022-10-17T10:37:55.369Z,35.78
2022-10-17T10:40:48.212Z,23.42
2022-10-17T10:43:47.954Z,32.07
2022-10-17T10:46:21.875Z,21.83
2022-10-17T10:49:02.074Z,25.15
2022-10-17T10:51:35.803Z,14.70
2022-10-17T10:54:27.626Z,27.90
2022-10-17T10:56:59.867Z,14.38
2022-10-17T10:59:52.482Z,23.37
2022-10-17T11:02:55.416Z,20.38
2022-10-17T11:05:27.084Z,14.30
2022-10-17T11:08:35.845Z,19.48
2022-10-17T11:11:30.892Z,21.30
2022-10-17T11:14:02.809Z,17.48
2022-10-17T11:16:46.592Z,11.65
2022-10-17T11:19:42.102Z,15.82
2022-10-17T11:22:32.510Z,21.55
2022-10-17T11:25:05.956Z,22.42
2022-10-17T11:27:38.879Z,17.98
2022-10-17T11:30:10.800Z,15.95
2022-10-17T11:33:01.662Z,20.00
2022-10-17T11:35:42.552Z,14.82
2022-10-17T11:38:30.843Z,24.63
2022-10-17T11:41:01.402Z,19.70
2022-10-17T11:43:33.306Z,16.02
2022-10-17T11:46:29.665Z,21.05
2022-10-17T11:49:04.098Z,16.30
2022-10-17T11:52:03.237Z,17.25
2022-10-17T11:54:47.345Z,14.48
2022-10-17T11:57:30.090Z,17.75
2022-10-17T12:00:06.206Z,20.33
2022-10-17T12:02:44.219Z,18.55
2022-10-17T12:05:34.150Z,13.55
2022-10-17T12:08:08.983Z,21.05
2022-10-17T12:11:08.559Z,14.38
2022-10-17T12:13:52.907Z,17.15
2022-10-17T12:16:22.712Z,18.65
2022-10-17T12:19:22.121Z,17.75
2022-10-17T12:22:02.328Z,26.33
2022-10-17T12:24:45.961Z,24.08
2022-10-17T12:27:36.513Z,25.70
2022-10-17T12:30:30.122Z,23.55
2022-10-17T12:33:07.746Z,22.25
2022-10-17T12:35:39.227Z,18.92
2022-10-17T12:38:21.366Z,21.35
2022-10-17T12:40:53.954Z,24.93
2022-10-17T12:43:29.964Z,20.92
2022-10-17T12:46:01.249Z,22.50
2022-10-17T12:48:42.988Z,25.70
2022-10-17T12:51:38.155Z,25.08
2022-10-17T12:54:16.037Z,20.05
2022-10-17T12:56:47.522Z,21.50
2022-10-17T12:59:28.011Z,18.33
2022-10-17T13:02:01.717Z,22.63
2022-10-17T13:04:31.799Z,18.25
2022-10-17T13:07:02.488Z,18.20
2022-10-17T13:09:39.662Z,15.20
2022-10-17T13:12:14.525Z,16.85
2022-10-17T13:14:44.677Z,21.75
2022-10-17T13:17:31.893Z,16.73
2022-10-17T13:20:01.872Z,21.48
2022-10-17T13:22:33.469Z,16.52
2022-10-17T13:25:35.527Z,20.05
2022-10-17T13:28:13.742Z,20.98
2022-10-17T13:30:49.585Z,17.63
2022-10-17T13:33:37.214Z,17.65
2022-10-17T13:36:09.691Z,18.20
2022-10-17T13:38:41.860Z,18.67
2022-10-17T13:44:16.950Z,22.13
2022-10-17T13:46:46.977Z,16.42
2022-10-17T13:49:35.914Z,18.63
2022-10-17T13:52:06.749Z,18.85
2022-10-17T13:54:36.794Z,19.90
2022-10-17T13:57:18.666Z,17.80
2022-10-17T13:59:52.416Z,20.10
2022-10-17T14:02:24.558Z,21.45
2022-10-17T14:05:17.286Z,19.50
2022-10-17T14:08:11.306Z,21.55
2022-10-17T14:10:42.435Z,20.00
2022-10-17T14:13:41.538Z,16.30
2022-10-17T14:16:11.812Z,18.00
2022-10-17T14:18:41.943Z,18.83
2022-10-17T14:24:24.038Z,19.13
2022-10-17T14:27:00.049Z,21.60
2022-10-17T14:29:34.493Z,19.40
2022-10-17T14:32:09.732Z,19.48
2022-10-17T14:34:41.643Z,21.13
2022-10-17T14:37:33.595Z,21.52
2022-10-17T14:40:04.888Z,21.23
2022-10-17T14:42:34.771Z,23.45
2022-10-17T14:45:09.890Z,26.05
2022-10-17T14:47:43.757Z,29.63
2022-10-17T14:50:26.848Z,20.45
2022-10-17T14:53:22.974Z,19.27
2022-10-17T14:56:02.904Z,23.40
2022-10-17T14:58:34.131Z,23.42
2022-10-17T15:01:04.231Z,21.08
2022-10-17T15:03:34.197Z,23.20
2022-10-17T15:06:18.047Z,23.50
2022-10-17T15:08:48.908Z,21.50
2022-10-17T15:11:19.683Z,26.73
2022-10-17T15:13:49.656Z,23.40
2022-10-17T15:16:34.788Z,23.73
2022-10-17T15:19:07.710Z,19.98
2022-10-17T15:24:16.999Z,21.25
2022-10-17T15:26:47.067Z,23.60
2022-10-17T15:29:17.933Z,22.15
2022-10-17T15:31:47.930Z,20.63
2022-10-17T15:34:17.908Z,21.88
2022-10-17T15:36:53.050Z,23.80
2022-10-17T15:39:23.001Z,23.23
2022-10-17T15:41:52.944Z,22.48
2022-10-17T15:44:22.914Z,26.48
2022-10-17T15:46:53.020Z,28.58
2022-10-17T15:49:22.955Z,25.27
2022-10-17T15:51:55.413Z,28.02
2022-10-17T15:54:25.534Z,26.83
2022-10-17T15:56:56.179Z,29.08
2022-10-17T15:59:29.540Z,27.80
2022-10-17T16:01:59.451Z,29.25
2022-10-17T16:04:31.743Z,26.40
2022-10-17T16:07:01.949Z,31.00
2022-10-17T16:09:32.025Z,26.17
2022-10-17T16:12:07.508Z,23.73
2022-10-17T16:14:45.452Z,26.85
2022-10-17T16:17:19.249Z,31.05
2022-10-17T16:19:52.094Z,30.40
2022-10-17T16:22:33.846Z,27.73
2022-10-17T16:25:08.936Z,24.70
2022-10-17T16:27:39.003Z,26.60
2022-10-17T16:30:09.690Z,24.58
2022-10-17T16:32:39.635Z,29.10
2022-10-17T16:35:10.160Z,24.17
2022-10-17T16:37:40.154Z,27.38
2022-10-17T16:40:10.672Z,28.52
2022-10-17T16:42:40.546Z,28.45
2022-10-17T16:45:11.321Z,27.42
2022-10-17T16:47:41.134Z,28.45
2022-10-17T16:50:11.544Z,30.30
2022-10-17T16:52:41.487Z,28.05
2022-10-17T16:55:11.731Z,27.75
2022-10-17T16:57:41.667Z,30.10
2022-10-17T17:00:13.153Z,25.30
2022-10-17T17:02:43.076Z,27.83
2022-10-17T17:05:13.267Z,27.83
2022-10-17T17:07:46.440Z,25.20
2022-10-17T17:10:16.364Z,23.83
2022-10-17T17:12:46.285Z,24.40
2022-10-17T17:15:16.320Z,22.65
2022-10-17T17:17:50.441Z,21.13
2022-10-17T17:20:22.224Z,22.90
2022-10-17T17:22:53.439Z,21.45
2022-10-17T17:25:24.053Z,23.92
2022-10-17T17:27:53.949Z,21.48
2022-10-17T17:30:23.956Z,21.63
2022-10-17T17:32:55.252Z,22.50
2022-10-17T17:35:26.263Z,23.67
2022-10-17T17:37:56.172Z,18.38
2022-10-17T17:40:27.893Z,22.13
2022-10-17T17:42:57.840Z,20.42
2022-10-17T17:45:27.738Z,20.10
2022-10-17T17:47:57.970Z,20.90
2022-10-17T17:50:28.572Z,20.67
2022-10-17T17:53:01.525Z,17.30
2022-10-17T17:55:31.405Z,19.80
2022-10-17T17:58:01.361Z,17.13
2022-10-17T18:00:31.347Z,20.65
2022-10-17T18:03:01.356Z,20.10
2022-10-17T18:05:31.551Z,21.13
2022-10-17T18:08:01.645Z,18.05
2022-10-17T18:10:31.638Z,20.58
2022-10-17T18:13:01.603Z,19.27
2022-10-17T18:15:31.748Z,21.08
2022-10-17T18:18:02.118Z,21.70
2022-10-17T18:20:32.963Z,19.65
2022-10-17T18:23:04.198Z,21.73
2022-10-17T18:25:34.866Z,20.17
2022-10-17T18:28:05.182Z,19.77
2022-10-17T18:30:39.806Z,23.73
2022-10-17T18:33:09.731Z,18.73
2022-10-17T18:35:39.679Z,22.15
2022-10-17T18:38:09.641Z,21.52
2022-10-17T18:40:40.058Z,20.88
2022-10-17T18:43:10.520Z,23.15
2022-10-17T18:45:40.520Z,25.23
2022-10-17T18:48:13.571Z,19.20
2022-10-17T18:50:43.512Z,19.98
2022-10-17T18:53:13.451Z,18.85
2022-10-17T18:55:43.660Z,18.88
2022-10-17T18:58:13.604Z,18.27
2022-10-17T19:00:43.478Z,19.10
2022-10-17T19:03:13.839Z,21.35
2022-10-17T19:05:46.300Z,23.10
2022-10-17T19:08:16.746Z,20.38
2022-10-17T19:10:46.591Z,21.02
2022-10-17T19:13:20.769Z,18.73
2022-10-17T19:15:51.596Z,22.85
2022-10-17T19:18:24.707Z,17.77
2022-10-17T19:20:54.659Z,17.35
2022-10-17T19:23:24.787Z,17.42
2022-10-17T19:25:55.965Z,18.10
2022-10-17T19:28:28.382Z,19.08
2022-10-17T19:30:58.659Z,15.30
2022-10-17T19:36:09.148Z,17.73
2022-10-17T19:38:39.050Z,15.05
2022-10-17T19:41:13.365Z,14.70
2022-10-17T19:43:44.120Z,14.50
2022-10-17T19:46:15.869Z,14.52
2022-10-17T19:48:45.850Z,15.40
2022-10-17T19:51:17.586Z,14.50
2022-10-17T19:53:47.665Z,13.77
2022-10-17T19:56:19.808Z,13.27
2022-10-17T19:58:50.146Z,13.93
2022-10-17T20:01:21.846Z,14.07
2022-10-17T20:03:51.998Z,15.82
2022-10-17T20:06:21.955Z,12.32
2022-10-17T20:08:51.955Z,13.63
2022-10-17T20:11:26.757Z,12.38
2022-10-17T20:13:56.843Z,12.60
2022-10-17T20:16:29.042Z,10.60
2022-10-17T20:19:05.152Z,14.07
2022-10-17T20:21:40.500Z,12.80
2022-10-17T20:24:12.473Z,10.15
2022-10-17T20:26:42.415Z,13.15
2022-10-17T20:29:17.548Z,12.05
2022-10-17T20:31:47.838Z,10.48
2022-10-17T20:34:18.923Z,10.30
2022-10-17T20:36:49.187Z,10.10
2022-10-17T20:39:19.958Z,11.20
2022-10-17T20:41:49.946Z,12.20
2022-10-17T20:44:20.129Z,10.00
2022-10-17T20:47:01.157Z,10.52
2022-10-17T20:49:32.602Z,10.55
2022-10-17T20:52:02.661Z,9.85
2022-10-17T20:54:32.632Z,10.65
2022-10-17T20:57:04.895Z,8.73
2022-10-17T20:59:37.888Z,11.32
2022-10-17T21:02:07.962Z,10.93
2022-10-17T21:04:46.736Z,11.82
2022-10-17T21:07:17.058Z,8.40
2022-10-17T21:09:47.527Z,9.02
2022-10-17T21:12:26.044Z,9.00
2022-10-17T21:15:01.770Z,9.82
2022-10-17T21:17:31.859Z,10.15
2022-10-17T21:20:01.751Z,7.50
2022-10-17T21:22:31.896Z,10.25
2022-10-17T21:25:02.019Z,9.18
2022-10-17T21:27:31.905Z,9.25
2022-10-17T21:30:01.944Z,8.13
2022-10-17T21:32:47.226Z,8.80
2022-10-17T21:35:20.813Z,7.40
2022-10-17T21:37:50.721Z,6.45
2022-10-17T21:40:20.776Z,6.57
2022-10-17T21:42:50.666Z,8.63
2022-10-17T21:45:25.771Z,6.97
2022-10-17T21:48:12.319Z,7.35
2022-10-17T21:50:43.086Z,5.72
2022-10-17T21:53:13.008Z,5.97
2022-10-17T21:55:46.058Z,6.03
2022-10-17T22:00:45.466Z,6.35
2022-10-17T22:03:16.343Z,6.80
2022-10-17T22:05:46.851Z,7.80
2022-10-17T22:08:16.983Z,6.78
2022-10-17T22:10:46.819Z,6.75
2022-10-17T22:13:16.691Z,5.65
2022-10-17T22:15:46.544Z,4.60
2022-10-17T22:18:16.500Z,5.50
2022-10-17T22:20:46.429Z,5.32
2022-10-17T22:23:16.390Z,5.30
2022-10-17T22:25:53.778Z,7.82
2022-10-17T22:28:23.915Z,7.70
2022-10-17T22:30:54.014Z,6.68
2022-10-17T22:33:26.695Z,4.65
2022-10-17T22:35:59.147Z,5.10
2022-10-17T22:38:29.250Z,4.38
2022-10-17T22:40:59.141Z,7.55
2022-10-17T22:43:29.042Z,5.43
2022-10-17T22:46:00.948Z,7.03
2022-10-17T22:48:30.998Z,5.03
2022-10-17T22:51:01.146Z,5.93
2022-10-17T22:53:31.324Z,4.72
2022-10-17T22:56:02.567Z,7.00
2022-10-17T22:58:33.259Z,5.47
2022-10-17T23:01:03.366Z,6.03
2022-10-17T23:03:33.780Z,5.30
2022-10-17T23:06:03.881Z,5.30
2022-10-17T23:08:33.844Z,5.85
2022-10-17T23:11:04.167Z,4.22
2022-10-17T23:13:34.063Z,6.63
2022-10-17T23:16:04.772Z,6.35
2022-10-17T23:18:34.732Z,7.72
2022-10-17T23:21:04.680Z,7.60
2022-10-17T23:23:34.934Z,6.25
2022-10-17T23:26:08.639Z,9.25
2022-10-17T23:28:38.856Z,7.10
2022-10-17T23:31:18.164Z,9.40
2022-10-17T23:33:48.999Z,5.90
2022-10-17T23:36:20.269Z,8.23
2022-10-17T23:38:52.624Z,9.15
2022-10-17T23:41:24.971Z,4.88
2022-10-17T23:43:54.915Z,8.25
2022-10-17T23:46:24.839Z,9.93
2022-10-17T23:48:54.836Z,6.55
2022-10-17T23:51:25.039Z,8.20
2022-10-17T23:53:55.009Z,9.13
2022-10-17T23:56:24.875Z,9.00
2022-10-17T23:58:54.775Z,9.18
